createdAt,value
2019-04-28T00:01:11.447Z,8.30
2019-04-28T00:03:43.561Z,8.30
2019-04-28T00:06:15.649Z,8.30
2019-04-28T00:08:47.731Z,8.30
2019-04-28T00:11:21.625Z,8.20
2019-04-28T00:13:54.180Z,8.10
2019-04-28T00:16:26.434Z,8.10
2019-04-28T00:18:58.812Z,8.00
2019-04-28T00:21:41.500Z,8.00
2019-04-28T00:24:31.335Z,8.00
2019-04-28T00:27:05.235Z,8.00
2019-04-28T00:29:41.049Z,8.00
2019-04-28T00:32:11.365Z,8.10
2019-04-28T00:34:43.526Z,8.10
2019-04-28T00:37:41.804Z,8.20
2019-04-28T00:40:14.126Z,8.20
2019-04-28T00:42:46.277Z,8.20
2019-04-28T00:45:18.372Z,8.20
2019-04-28T00:47:51.032Z,8.20
2019-04-28T00:50:23.364Z,8.20
2019-04-28T00:52:55.889Z,8.30
2019-04-28T00:55:27.948Z,8.30
2019-04-28T00:58:00.911Z,8.30
2019-04-28T01:00:35.356Z,8.40
2019-04-28T01:03:07.679Z,8.40
2019-04-28T01:05:41.128Z,8.40
2019-04-28T01:08:13.408Z,8.40
2019-04-28T01:10:45.432Z,8.40
2019-04-28T01:13:17.567Z,8.50
2019-04-28T01:16:05.101Z,8.50
2019-04-28T01:18:50.176Z,8.50
2019-04-28T01:21:23.975Z,8.50
2019-04-28T01:23:56.115Z,8.50
2019-04-28T01:26:29.984Z,8.40
2019-04-28T01:29:02.045Z,8.40
2019-04-28T01:31:55.616Z,8.40
2019-04-28T01:34:27.771Z,8.40
2019-04-28T01:36:59.939Z,8.40
2019-04-28T01:39:32.084Z,8.40
2019-04-28T01:42:04.167Z,8.40
2019-04-28T01:44:36.240Z,8.50
2019-04-28T01:47:10.491Z,8.50
2019-04-28T01:49:42.571Z,8.50
2019-04-28T01:52:14.589Z,8.50
2019-04-28T01:54:46.667Z,8.50
2019-04-28T01:57:21.330Z,8.50
2019-04-28T01:59:52.307Z,8.50
2019-04-28T02:02:24.474Z,8.40
2019-04-28T02:04:56.713Z,8.40
2019-04-28T02:07:30.699Z,8.30
2019-04-28T02:10:03.462Z,8.30
2019-04-28T02:12:35.852Z,8.30
2019-04-28T02:15:10.007Z,8.30
2019-04-28T02:17:41.861Z,8.20
2019-04-28T02:20:15.178Z,8.30
2019-04-28T02:22:53.354Z,8.30
2019-04-28T02:25:25.317Z,8.30
2019-04-28T02:27:57.278Z,8.40
2019-04-28T02:33:12.596Z,8.40
2019-04-28T02:35:44.581Z,8.40
2019-04-28T02:38:16.598Z,8.30
2019-04-28T02:40:50.393Z,8.30
2019-04-28T02:43:22.545Z,8.30
2019-04-28T02:45:54.516Z,8.30
2019-04-28T02:48:27.339Z,8.30
2019-04-28T02:51:15.361Z,8.30
2019-04-28T02:53:51.110Z,8.30
2019-04-28T02:56:22.654Z,8.20
2019-04-28T02:58:54.837Z,8.20
2019-04-28T03:01:27.025Z,8.30
2019-04-28T03:04:00.331Z,8.30
2019-04-28T03:06:33.418Z,8.30
2019-04-28T03:09:06.609Z,8.30
2019-04-28T03:11:42.761Z,8.30
2019-04-28T03:14:13.689Z,8.20
2019-04-28T03:16:46.636Z,8.20
2019-04-28T03:19:21.077Z,8.20
2019-04-28T03:21:52.325Z,8.10
2019-04-28T03:24:24.152Z,8.20
2019-04-28T03:27:03.595Z,8.10
2019-04-28T03:29:46.281Z,8.20
2019-04-28T03:32:44.628Z,8.20
2019-04-28T03:35:04.109Z,8.20
2019-04-28T03:37:36.925Z,8.10
2019-04-28T03:40:10.869Z,8.00
2019-04-28T03:42:42.802Z,8.00
2019-04-28T03:45:21.288Z,8.00
2019-04-28T03:47:53.358Z,8.00
2019-04-28T03:50:25.640Z,7.90
2019-04-28T03:52:57.586Z,7.90
2019-04-28T03:55:34.488Z,7.80
2019-04-28T03:58:03.261Z,7.80
2019-04-28T04:00:35.262Z,7.90
2019-04-28T04:03:07.411Z,7.90
2019-04-28T04:05:40.815Z,7.80
2019-04-28T04:08:12.920Z,7.80
2019-04-28T04:11:03.750Z,7.70
2019-04-28T04:13:44.332Z,7.70
2019-04-28T04:16:36.160Z,7.70
2019-04-28T04:19:10.660Z,7.70
2019-04-28T04:21:42.727Z,7.70
2019-04-28T04:24:15.073Z,7.70
2019-04-28T04:26:46.964Z,7.70
2019-04-28T04:29:21.458Z,7.70
2019-04-28T04:32:09.479Z,7.70
2019-04-28T04:34:26.108Z,7.70
2019-04-28T04:37:00.582Z,7.70
2019-04-28T04:39:32.347Z,7.60
2019-04-28T04:42:04.548Z,7.70
2019-04-28T04:44:38.776Z,7.60
2019-04-28T04:47:11.389Z,7.60
2019-04-28T04:49:43.418Z,7.70
2019-04-28T04:52:15.470Z,7.70
2019-04-28T04:54:47.462Z,7.80
2019-04-28T04:57:20.727Z,7.80
2019-04-28T04:59:52.892Z,7.90
2019-04-28T05:02:33.386Z,7.90
2019-04-28T05:05:24.384Z,8.00
2019-04-28T05:07:56.466Z,8.00
2019-04-28T05:10:30.320Z,8.00
2019-04-28T05:13:02.717Z,8.00
2019-04-28T05:15:34.903Z,8.00
2019-04-28T05:18:06.878Z,8.00
2019-04-28T05:20:40.354Z,8.00
2019-04-28T05:23:19.648Z,8.00
2019-04-28T05:25:51.729Z,8.00
2019-04-28T05:28:23.728Z,8.00
2019-04-28T05:30:55.791Z,8.00
2019-04-28T05:33:31.983Z,8.00
2019-04-28T05:36:03.175Z,8.10
2019-04-28T05:38:35.118Z,8.10
2019-04-28T05:41:07.190Z,8.10
2019-04-28T05:43:40.418Z,8.20
2019-04-28T05:46:12.482Z,8.20
2019-04-28T05:48:57.562Z,8.20
2019-04-28T05:51:31.655Z,8.50
2019-04-28T05:54:16.237Z,8.80
2019-04-28T05:57:05.452Z,9.40
2019-04-28T05:59:49.998Z,9.90
2019-04-28T06:02:26.215Z,10.30
2019-04-28T06:04:59.974Z,10.80
2019-04-28T06:07:40.675Z,11.20
2019-04-28T06:10:14.400Z,11.60
2019-04-28T06:12:46.459Z,12.00
2019-04-28T06:15:20.364Z,12.40
2019-04-28T06:17:52.512Z,12.50
2019-04-28T06:20:24.600Z,12.70
2019-04-28T06:22:56.667Z,12.80
2019-04-28T06:25:28.856Z,13.00
2019-04-28T06:28:00.936Z,12.90
2019-04-28T06:30:33.146Z,12.90
2019-04-28T06:33:08.026Z,12.80
2019-04-28T06:35:40.076Z,12.90
2019-04-28T06:38:12.452Z,13.00
2019-04-28T06:40:44.653Z,12.60
2019-04-28T06:43:16.966Z,12.20
2019-04-28T06:45:49.226Z,12.20
2019-04-28T06:48:21.731Z,12.60
2019-04-28T06:50:54.530Z,12.80
2019-04-28T06:53:27.639Z,12.90
2019-04-28T06:55:59.774Z,13.00
2019-04-28T06:58:32.070Z,13.20
2019-04-28T07:01:04.245Z,13.30
2019-04-28T07:03:36.313Z,13.50
2019-04-28T07:06:08.497Z,13.70
2019-04-28T07:08:40.699Z,13.70
2019-04-28T07:11:12.950Z,13.50
2019-04-28T07:13:49.952Z,13.50
2019-04-28T07:16:28.253Z,13.40
2019-04-28T07:19:01.702Z,13.20
2019-04-28T07:21:42.145Z,13.00
2019-04-28T07:24:14.504Z,12.90
2019-04-28T07:26:46.708Z,12.70
2019-04-28T07:29:18.826Z,12.60
2019-04-28T07:31:50.778Z,12.40
2019-04-28T07:34:22.811Z,12.50
2019-04-28T07:36:54.897Z,12.30
2019-04-28T07:39:27.629Z,12.30
2019-04-28T07:41:59.723Z,12.20
2019-04-28T07:44:31.917Z,12.00
2019-04-28T07:47:05.341Z,11.90
2019-04-28T07:49:37.392Z,11.80
2019-04-28T07:52:14.593Z,11.90
2019-04-28T07:54:46.779Z,11.70
2019-04-28T07:57:18.795Z,11.60
2019-04-28T07:59:50.877Z,11.60
2019-04-28T08:02:23.192Z,11.60
2019-04-28T08:04:55.167Z,11.70
2019-04-28T08:07:27.218Z,11.80
2019-04-28T08:09:59.286Z,11.70
2019-04-28T08:12:31.288Z,11.60
2019-04-28T08:15:03.398Z,11.40
2019-04-28T08:17:36.157Z,11.30
2019-04-28T08:20:08.353Z,11.30
2019-04-28T08:22:40.412Z,11.20
2019-04-28T08:25:14.664Z,11.20
2019-04-28T08:27:47.286Z,11.20
2019-04-28T08:30:20.820Z,11.20
2019-04-28T08:33:00.550Z,11.20
2019-04-28T08:35:32.837Z,11.20
2019-04-28T08:38:07.307Z,11.30
2019-04-28T08:40:39.581Z,11.40
2019-04-28T08:43:12.028Z,11.50
2019-04-28T08:45:44.225Z,11.60
2019-04-28T08:48:16.501Z,11.70
2019-04-28T08:50:48.633Z,11.80
2019-04-28T08:53:20.683Z,11.70
2019-04-28T08:55:53.889Z,11.70
2019-04-28T08:58:25.934Z,11.70
2019-04-28T09:00:58.612Z,11.70
2019-04-28T09:03:31.839Z,11.80
2019-04-28T09:06:04.384Z,11.80
2019-04-28T09:08:37.798Z,11.80
2019-04-28T09:11:10.240Z,11.70
2019-04-28T09:13:43.917Z,11.50
2019-04-28T09:16:16.282Z,11.40
2019-04-28T09:18:48.829Z,11.40
2019-04-28T09:21:20.901Z,11.20
2019-04-28T09:23:53.112Z,11.20
2019-04-28T09:26:25.547Z,11.10
2019-04-28T09:28:58.027Z,11.20
2019-04-28T09:31:36.844Z,11.20
2019-04-28T09:34:27.594Z,11.20
2019-04-28T09:37:03.093Z,11.20
2019-04-28T09:39:55.670Z,11.30
2019-04-28T09:42:56.639Z,11.30
2019-04-28T09:45:36.304Z,11.30
2019-04-28T09:48:09.491Z,11.40
2019-04-28T09:50:43.819Z,11.60
2019-04-28T09:53:16.321Z,11.80
2019-04-28T09:55:48.668Z,11.90
2019-04-28T09:58:20.947Z,12.20
2019-04-28T10:00:53.751Z,12.20
2019-04-28T10:03:29.180Z,12.30
2019-04-28T10:06:01.408Z,12.40
2019-04-28T10:08:36.694Z,12.40
2019-04-28T10:11:09.109Z,12.40
2019-04-28T10:13:41.241Z,12.30
2019-04-28T10:16:13.465Z,12.10
2019-04-28T10:18:45.611Z,11.90
2019-04-28T10:21:22.548Z,11.90
2019-04-28T10:23:55.366Z,11.90
2019-04-28T10:26:30.573Z,12.00
2019-04-28T10:29:06.142Z,11.90
2019-04-28T10:31:38.446Z,11.90
2019-04-28T10:34:12.235Z,12.10
2019-04-28T10:36:49.233Z,12.20
2019-04-28T10:39:31.613Z,12.30
2019-04-28T10:42:04.041Z,12.30
2019-04-28T10:44:40.037Z,12.40
2019-04-28T10:47:12.230Z,12.40
2019-04-28T10:49:44.604Z,12.50
2019-04-28T10:52:16.949Z,12.50
2019-04-28T10:54:49.102Z,12.60
2019-04-28T10:57:21.231Z,12.60
2019-04-28T10:59:53.544Z,12.60
2019-04-28T11:02:25.773Z,12.50
2019-04-28T11:05:08.438Z,12.30
2019-04-28T11:07:38.292Z,12.30
2019-04-28T11:10:16.636Z,12.30
2019-04-28T11:12:48.882Z,12.20
2019-04-28T11:15:40.079Z,12.20
2019-04-28T11:18:14.002Z,12.20
2019-04-28T11:20:46.216Z,12.10
2019-04-28T11:23:18.253Z,12.20
2019-04-28T11:25:50.679Z,12.30
2019-04-28T11:28:22.870Z,12.20
2019-04-28T11:30:57.010Z,12.10
2019-04-28T11:33:35.704Z,12.00
2019-04-28T11:36:11.826Z,12.20
2019-04-28T11:38:45.990Z,12.30
2019-04-28T11:41:21.582Z,12.10
2019-04-28T11:44:00.486Z,12.10
2019-04-28T11:46:33.182Z,12.20
2019-04-28T11:49:09.042Z,12.30
2019-04-28T11:51:44.935Z,12.20
2019-04-28T11:54:20.654Z,12.30
2019-04-28T11:56:53.465Z,12.30
2019-04-28T11:59:27.965Z,12.30
2019-04-28T12:02:15.942Z,12.20
2019-04-28T12:04:48.715Z,12.20
2019-04-28T12:07:23.632Z,12.20
2019-04-28T12:10:20.613Z,11.90
2019-04-28T12:13:10.418Z,11.70
2019-04-28T12:16:10.274Z,11.40
2019-04-28T12:18:57.407Z,11.40
2019-04-28T12:21:29.480Z,11.40
2019-04-28T12:24:01.522Z,11.30
2019-04-28T12:26:33.775Z,11.40
2019-04-28T12:29:06.067Z,11.50
2019-04-28T12:31:38.234Z,11.50
2019-04-28T12:34:10.369Z,11.50
2019-04-28T12:36:42.690Z,11.50
2019-04-28T12:39:14.876Z,11.60
2019-04-28T12:41:47.292Z,11.80
2019-04-28T12:44:19.541Z,11.80
2019-04-28T12:46:51.621Z,12.00
2019-04-28T12:49:42.895Z,12.00
2019-04-28T12:52:16.945Z,12.00
2019-04-28T12:54:49.149Z,12.10
2019-04-28T12:57:21.274Z,12.30
2019-04-28T13:00:15.128Z,12.40
2019-04-28T13:03:05.016Z,12.50
2019-04-28T13:05:39.113Z,12.60
2019-04-28T13:08:11.435Z,12.80
2019-04-28T13:10:43.862Z,12.80
2019-04-28T13:13:16.200Z,12.90
2019-04-28T13:15:53.618Z,12.90
2019-04-28T13:18:25.922Z,13.00
2019-04-28T13:20:59.114Z,13.20
2019-04-28T13:23:31.563Z,13.30
2019-04-28T13:26:04.583Z,13.40
2019-04-28T13:28:36.913Z,13.50
2019-04-28T13:31:09.418Z,13.60
2019-04-28T13:33:55.887Z,13.60
2019-04-28T13:36:21.634Z,13.60
2019-04-28T13:38:58.250Z,13.60
2019-04-28T13:41:30.881Z,13.60
2019-04-28T13:44:08.849Z,13.60
2019-04-28T13:46:45.063Z,13.50
2019-04-28T13:49:18.215Z,13.60
2019-04-28T13:51:53.534Z,13.60
2019-04-28T13:54:25.929Z,13.60
2019-04-28T13:56:58.441Z,13.60
2019-04-28T13:59:30.941Z,13.60
2019-04-28T14:02:11.651Z,13.70
2019-04-28T14:05:02.984Z,13.70
2019-04-28T14:07:35.135Z,13.70
2019-04-28T14:10:07.402Z,13.80
2019-04-28T14:12:39.412Z,13.80
2019-04-28T14:15:12.056Z,13.80
2019-04-28T14:17:44.672Z,13.90
2019-04-28T14:20:16.864Z,13.80
2019-04-28T14:22:49.538Z,13.90
2019-04-28T14:25:22.716Z,13.70
2019-04-28T14:27:55.568Z,13.80
2019-04-28T14:30:28.542Z,13.90
2019-04-28T14:33:04.368Z,13.80
2019-04-28T14:35:39.309Z,13.60
2019-04-28T14:38:17.975Z,13.40
2019-04-28T14:40:52.408Z,13.30
2019-04-28T14:43:24.877Z,13.20
2019-04-28T14:45:58.077Z,13.20
2019-04-28T14:48:36.551Z,13.30
2019-04-28T14:51:13.082Z,13.20
2019-04-28T14:53:46.176Z,13.10
2019-04-28T14:56:20.613Z,13.20
2019-04-28T14:58:54.880Z,13.20
2019-04-28T15:01:57.863Z,13.30
2019-04-28T15:04:51.255Z,13.20
2019-04-28T15:07:58.151Z,13.30
2019-04-28T15:10:56.391Z,13.30
2019-04-28T15:13:36.844Z,13.30
2019-04-28T15:16:11.935Z,13.30
2019-04-28T15:18:50.687Z,13.20
2019-04-28T15:21:24.646Z,13.20
2019-04-28T15:23:56.793Z,13.20
2019-04-28T15:26:28.975Z,13.10
2019-04-28T15:29:01.082Z,13.00
2019-04-28T15:31:34.117Z,13.00
2019-04-28T15:34:06.251Z,12.80
2019-04-28T15:36:38.310Z,12.70
2019-04-28T15:39:12.160Z,12.80
2019-04-28T15:41:46.125Z,12.80
2019-04-28T15:44:18.183Z,13.00
2019-04-28T15:46:50.252Z,13.10
2019-04-28T15:49:22.480Z,13.00
2019-04-28T15:51:54.746Z,13.00
2019-04-28T15:54:26.806Z,13.00
2019-04-28T15:56:59.014Z,12.90
2019-04-28T15:59:31.416Z,12.90
2019-04-28T16:02:03.940Z,13.00
2019-04-28T16:04:36.381Z,13.00
2019-04-28T16:07:24.239Z,12.80
2019-04-28T16:09:46.060Z,12.80
2019-04-28T16:12:18.452Z,12.90
2019-04-28T16:14:50.726Z,13.00
2019-04-28T16:17:23.164Z,13.10
2019-04-28T16:19:55.740Z,13.00
2019-04-28T16:22:28.422Z,13.00
2019-04-28T16:25:03.309Z,12.90
2019-04-28T16:27:36.631Z,12.80
2019-04-28T16:30:09.346Z,12.90
2019-04-28T16:32:41.443Z,13.00
2019-04-28T16:35:13.509Z,13.00
2019-04-28T16:37:46.602Z,13.00
2019-04-28T16:40:18.789Z,13.10
2019-04-28T16:42:55.520Z,13.10
2019-04-28T16:45:27.529Z,13.10
2019-04-28T16:48:00.234Z,13.10
2019-04-28T16:50:32.314Z,13.00
2019-04-28T16:53:05.866Z,12.90
2019-04-28T16:55:57.080Z,12.90
2019-04-28T16:58:45.364Z,12.90
2019-04-28T17:01:34.118Z,12.80
2019-04-28T17:04:06.378Z,12.70
2019-04-28T17:06:38.536Z,12.60
2019-04-28T17:09:11.585Z,12.50
2019-04-28T17:11:46.580Z,12.40
2019-04-28T17:14:18.740Z,12.30
2019-04-28T17:16:51.279Z,12.40
2019-04-28T17:19:23.475Z,12.40
2019-04-28T17:21:55.644Z,12.40
2019-04-28T17:24:27.609Z,12.50
2019-04-28T17:26:59.608Z,12.60
2019-04-28T17:29:31.697Z,12.60
2019-04-28T17:32:03.759Z,12.50
2019-04-28T17:34:35.874Z,12.60
2019-04-28T17:37:08.501Z,12.60
2019-04-28T17:39:40.685Z,12.60
2019-04-28T17:42:14.416Z,12.60
2019-04-28T17:44:47.571Z,12.50
2019-04-28T17:47:20.912Z,12.50
2019-04-28T17:49:52.913Z,12.50
2019-04-28T17:52:24.952Z,12.40
2019-04-28T17:54:57.123Z,12.40
2019-04-28T17:57:29.113Z,12.40
2019-04-28T18:00:03.067Z,12.40
2019-04-28T18:03:00.187Z,12.40
2019-04-28T18:05:42.729Z,12.40
2019-04-28T18:08:21.140Z,12.30
2019-04-28T18:10:48.501Z,12.30
2019-04-28T18:13:20.736Z,12.30
2019-04-28T18:16:20.896Z,12.20
2019-04-28T18:19:00.119Z,11.90
2019-04-28T18:21:32.119Z,11.80
2019-04-28T18:24:05.384Z,11.90
2019-04-28T18:26:37.690Z,11.80
2019-04-28T18:29:10.858Z,11.80
2019-04-28T18:32:01.918Z,11.70
2019-04-28T18:34:40.676Z,11.50
2019-04-28T18:37:43.216Z,11.60
2019-04-28T18:40:34.587Z,11.60
2019-04-28T18:43:12.705Z,11.40
2019-04-28T18:45:44.715Z,11.40
2019-04-28T18:48:16.731Z,11.40
2019-04-28T18:50:48.831Z,11.30
2019-04-28T18:53:20.898Z,11.20
2019-04-28T18:55:53.285Z,11.20
2019-04-28T18:58:25.456Z,11.00
2019-04-28T19:01:10.610Z,11.00
2019-04-28T19:03:42.944Z,10.80
2019-04-28T19:06:15.154Z,10.80
2019-04-28T19:08:55.408Z,10.80
2019-04-28T19:11:37.090Z,10.80
2019-04-28T19:14:25.558Z,10.70
2019-04-28T19:17:16.568Z,10.70
2019-04-28T19:19:50.234Z,10.70
2019-04-28T19:22:22.207Z,10.70
2019-04-28T19:24:55.639Z,10.60
2019-04-28T19:27:27.883Z,10.70
2019-04-28T19:29:59.755Z,10.70
2019-04-28T19:32:31.744Z,10.60
2019-04-28T19:35:03.716Z,10.60
2019-04-28T19:37:36.055Z,10.70
2019-04-28T19:40:08.765Z,10.70
2019-04-28T19:42:41.058Z,10.70
2019-04-28T19:45:14.734Z,10.70
2019-04-28T19:47:46.615Z,10.70
2019-04-28T19:50:18.762Z,10.80
2019-04-28T19:52:50.709Z,10.70
2019-04-28T19:55:27.085Z,10.60
2019-04-28T19:58:18.041Z,10.70
2019-04-28T20:00:58.761Z,10.60
2019-04-28T20:03:30.919Z,10.60
2019-04-28T20:06:03.111Z,10.60
2019-04-28T20:08:35.236Z,10.60
2019-04-28T20:11:07.905Z,10.50
2019-04-28T20:13:41.312Z,10.50
2019-04-28T20:16:13.935Z,10.60
2019-04-28T20:18:48.726Z,10.50
2019-04-28T20:21:20.034Z,10.60
2019-04-28T20:23:52.041Z,10.50
2019-04-28T20:26:24.198Z,10.50
2019-04-28T20:28:57.555Z,10.50
2019-04-28T20:31:30.072Z,10.50
2019-04-28T20:34:02.251Z,10.40
2019-04-28T20:37:05.401Z,10.40
2019-04-28T20:39:37.635Z,10.40
2019-04-28T20:42:27.062Z,10.40
2019-04-28T20:44:59.008Z,10.40
2019-04-28T20:47:31.002Z,10.40
2019-04-28T20:50:02.932Z,10.40
2019-04-28T20:52:35.099Z,10.40
2019-04-28T20:55:07.280Z,10.30
2019-04-28T20:57:39.357Z,10.40
2019-04-28T21:00:11.690Z,10.40
2019-04-28T21:02:45.438Z,10.30
2019-04-28T21:05:17.455Z,10.40
2019-04-28T21:07:49.485Z,10.40
2019-04-28T21:10:21.532Z,10.30
2019-04-28T21:12:53.549Z,10.30
2019-04-28T21:15:25.634Z,10.30
2019-04-28T21:17:57.663Z,10.30
2019-04-28T21:20:29.682Z,10.30
2019-04-28T21:23:01.820Z,10.20
2019-04-28T21:25:33.822Z,10.20
2019-04-28T21:28:06.105Z,10.10
2019-04-28T21:30:38.189Z,10.00
2019-04-28T21:33:10.148Z,10.00
2019-04-28T21:35:42.993Z,9.90
2019-04-28T21:38:15.129Z,9.80
2019-04-28T21:40:47.200Z,9.80
2019-04-28T21:43:28.532Z,9.80
2019-04-28T21:46:07.698Z,9.70
2019-04-28T21:48:44.581Z,9.70
2019-04-28T21:51:16.742Z,9.80
2019-04-28T21:53:48.743Z,9.70
2019-04-28T21:56:20.642Z,9.70
2019-04-28T21:58:52.646Z,9.60
2019-04-28T22:01:25.338Z,9.50
2019-04-28T22:03:59.227Z,9.50
2019-04-28T22:06:31.218Z,9.50
2019-04-28T22:09:03.402Z,9.50
2019-04-28T22:11:37.067Z,9.50
2019-04-28T22:14:09.110Z,9.40
2019-04-28T22:16:41.124Z,9.40
2019-04-28T22:19:13.338Z,9.30
2019-04-28T22:21:46.240Z,9.20
2019-04-28T22:24:31.156Z,9.10
2019-04-28T22:27:03.350Z,9.10
2019-04-28T22:29:35.371Z,9.00
2019-04-28T22:32:07.425Z,8.90
2019-04-28T22:34:39.446Z,8.80
2019-04-28T22:37:11.677Z,8.70
2019-04-28T22:39:46.781Z,8.70
2019-04-28T22:42:17.616Z,8.70
2019-04-28T22:44:49.920Z,8.60
2019-04-28T22:47:21.932Z,8.60
2019-04-28T22:49:55.013Z,8.50
2019-04-28T22:52:26.994Z,8.50
2019-04-28T22:55:17.890Z,8.40
2019-04-28T22:57:59.364Z,8.30
2019-04-28T23:00:56.054Z,8.20
2019-04-28T23:03:49.844Z,8.10
2019-04-28T23:06:22.018Z,8.00
2019-04-28T23:08:54.122Z,8.00
2019-04-28T23:11:26.078Z,8.10
2019-04-28T23:13:58.216Z,8.10
2019-04-28T23:16:30.266Z,8.10
2019-04-28T23:19:04.062Z,8.10
2019-04-28T23:21:57.984Z,8.10
2019-04-28T23:24:30.019Z,8.00
2019-04-28T23:27:02.063Z,8.00
2019-04-28T23:29:34.155Z,7.90
2019-04-28T23:32:06.603Z,7.80
2019-04-28T23:34:38.573Z,7.70
2019-04-28T23:37:10.555Z,7.70
2019-04-28T23:39:42.526Z,7.70
2019-04-28T23:42:20.659Z,7.60
2019-04-28T23:44:52.747Z,7.60
2019-04-28T23:47:24.638Z,7.50
2019-04-28T23:49:56.909Z,7.50
2019-04-28T23:52:59.669Z,7.50
2019-04-28T23:55:31.919Z,7.50
2019-04-28T23:58:04.014Z,7.40
